Flight Track Log - Related Links

Times and Time Zones

All times are in EDT time to prevent confusion due to time zone crossing. See the SWA385 flight status page for this flight to view local times or setup timezone preferences in your user account.

Time Position Orientation Groundspeed Altitude Reporting Facility
EDT Latitude Longitude Course Direction KTS MPH feet Rate Location/Type
Wed 12:15:56 AM 38.6167 -121.4833 117° Southeast 264 304 6,800  Level Northern TRACON
Wed 12:16:56 AM 38.5667 -121.4000 127° Southeast 307 353 11,400 3,745 Climbing Northern TRACON
Wed 12:18:17 AM 38.5058 -121.2558 118° Southeast 352 405 15,600 3,127 Climbing Oakland Center
Wed 12:19:18 AM 38.4494 -121.1397 122° Southeast 392 451 18,800 3,246 Climbing Oakland Center
Wed 12:20:00 AM 38.3128 -121.0026 109° East  Level FlightAware
Wed 12:20:19 AM 38.3911 -121.0158 121° Southeast 408 470 22,200  Level Oakland Center
Wed 12:21:20 AM 38.3297 -120.8872 121° Southeast 421 484 25,500 2,951 Climbing Oakland Center
Wed 12:22:21 AM 38.2667 -120.7564 122° Southeast 434 499 28,200 1,721 Climbing Oakland Center
Wed 12:23:22 AM 38.1878 -120.6397 131° Southeast 436 502 29,000 934 Climbing Oakland Center
Wed 12:24:23 AM 38.0928 -120.5444 142° Southeast 435 501 30,100 2,000 Climbing Oakland Center
Wed 12:25:25 AM 37.9967 -120.4514 143° Southeast 433 498 33,100 2,732 Climbing Oakland Center
Wed 12:26:26 AM 37.9050 -120.3611 142° Southeast 419 482 35,700 1,918 Climbing Oakland Center
Wed 12:27:27 AM 37.7964 -120.2581 143° Southeast 407 468 37,000 639 Climbing Oakland Center
Wed 12:28:28 AM 37.7067 -120.1700 142° Southeast 407 468 37,000  Level Oakland Center
Wed 12:29:29 AM 37.6158 -120.0836 143° Southeast 407 468 37,000  Level Oakland Center
Wed 12:30:30 AM 37.5258 -119.9969 143° Southeast 406 467 37,000  Level Oakland Center
Wed 12:31:31 AM 37.4314 -119.9053 142° Southeast 413 475 37,000  Level Oakland Center
Wed 12:32:33 AM 37.3417 -119.8206 143° Southeast 415 478 37,000  Level Oakland Center
Wed 12:33:34 AM 37.2525 -119.7367 143° Southeast 413 475 37,000  Level Oakland Center
Wed 12:34:35 AM 37.1603 -119.6464 142° Southeast 419 482 37,000  Level Oakland Center
Wed 12:35:36 AM 37.0581 -119.5958 158° South 404 465 37,000  Level Oakland Center
Wed 12:36:37 AM 36.9267 -119.5978 181° South 392 451 37,000  Level Oakland Center
Wed 12:37:38 AM 36.8169 -119.5997 181° South 394 453 37,000  Level Oakland Center
Wed 12:38:39 AM 36.7075 -119.6028 181° South 394 453 37,000  Level Oakland Center
Wed 12:39:40 AM 36.5981 -119.6036 180° South 394 453 37,000  Level Oakland Center
Wed 12:40:42 AM 36.4886 -119.6072 182° South 393 452 37,000  Level Oakland Center
Wed 12:41:43 AM 36.3781 -119.6075 180° South 394 453 37,000  Level Oakland Center
Wed 12:42:44 AM 36.2683 -119.6097 181° South 395 455 37,000  Level Oakland Center
Wed 12:43:45 AM 36.1572 -119.6119 181° South 397 457 37,000  Level Oakland Center
Wed 12:44:46 AM 36.0472 -119.6133 181° South 396 456 37,000  Level Oakland Center
Wed 12:45:47 AM 35.9350 -119.6156 181° South 400 460 37,000  Level Oakland Center
Wed 12:46:48 AM 35.8239 -119.6208 182° South 399 459 37,000  Level Oakland Center
Wed 12:47:49 AM 35.7117 -119.6244 181° South 400 460 37,000  Level Oakland Center
Wed 12:48:50 AM 35.5997 -119.6278 181° South 400 460 37,000  Level Oakland Center
Wed 12:49:51 AM 35.4669 -119.6064 173° South 397 457 37,000  Level Oakland Center
Wed 12:50:52 AM 35.3636 -119.5439 154° Southeast 406 467 37,000  Level Oakland Center
Wed 12:51:53 AM 35.2597 -119.4833 155° Southeast 409 471 37,000  Level Oakland Center
Wed 12:52:54 AM 35.1572 -119.4236 155° Southeast 408 470 37,000  Level Oakland Center
Wed 12:53:58 AM 35.0547 -119.3639 154° Southeast 412 474 37,000  Level Los Center
Wed 12:55:00 AM 34.9514 -119.3044 155° Southeast 411 473 37,000  Level Los Center
Wed 12:56:01 AM 34.8489 -119.2450 155° Southeast 409 471 37,000  Level Los Center
Wed 12:57:03 AM 34.7489 -119.1853 154° Southeast 404 465 37,000 -293 Level Los Center
Wed 12:58:04 AM 34.6342 -119.1142 153° Southeast 403 464 36,400 -2,066 Descending Los Center
Wed 12:59:05 AM 34.5331 -119.0300 146° Southeast 412 474 32,800 -3,366 Descending Los Center
Wed 01:00:07 AM 34.4369 -118.9506 146° Southeast 416 479 29,500 -3,171 Descending Los Center
Wed 01:01:08 AM 34.3369 -118.8753 148° Southeast 421 484 26,300 -3,000 Descending Los Center
Wed 01:02:09 AM 34.2289 -118.8350 163° South 409 471 23,400 -2,780 Descending Los Center
Wed 01:03:11 AM 34.1253 -118.7975 163° South 388 447 20,600 -2,855 Descending Los Center
Wed 01:04:13 AM 34.0147 -118.7550 162° South 378 435 17,500 -2,976 Descending Los Center
Wed 01:05:14 AM 33.9172 -118.7203 164° South 368 423 14,500 -1,721 Descending Los Center
Wed 01:06:15 AM 33.8136 -118.6833 163° South 362 417 14,000 -976 Descending Los Center
Wed 01:07:17 AM 33.7331 -118.6531 163° South 304 350 12,500 -1,756 Descending Los Center
Wed 01:08:18 AM 33.6561 -118.6269 164° South 292 336 10,400 -2,066 Descending Los Center
Wed 01:09:19 AM 33.5836 -118.5956 160° South 280 322 8,300 -1,902 Descending Los Center
Wed 01:10:21 AM 33.5717 -118.5094 99° East 279 321 6,500 -1,463 Descending Los Center
Wed 01:11:22 AM 33.5789 -118.4203 84° East 274 315 5,300 -787 Descending Los Center
Wed 01:12:23 AM 33.5981 -118.3419 74° East 258 297 4,900 -148 Descending Los Center
Wed 01:13:24 AM 33.6297 -118.2675 63° Northeast 224 258 5,000 49 Climbing Los Center
Wed 01:14:26 AM 33.6550 -118.2067 63° Northeast 213 245 5,000  Level Los Center
Wed 01:15:27 AM 33.6800 -118.1456 64° Northeast 208 239 5,000 63 Level Los Center
Wed 01:16:01 AM 33.7000 -118.1000 62° Northeast 206 237 5,100 64 Climbing Southern TRACON
Wed 01:17:01 AM 33.7167 -118.0500 68° East 194 223 5,100 -350 Level Southern TRACON
Wed 01:18:01 AM 33.7500 -117.9833 59° Northeast 197 227 4,400 -750 Descending Southern TRACON
Wed 01:19:01 AM 33.7667 -117.9333 68° East 184 212 3,600 -650 Descending Southern TRACON
Wed 01:20:01 AM 33.8000 -117.8833 51° Northeast 185 213 3,100 -250 Descending Southern TRACON
Wed 01:21:01 AM 33.8333 -117.8500 40° Northeast 169 194 3,100 -150 Level Southern TRACON
Wed 01:22:01 AM 33.8167 -117.8000 112° Southeast 163 188 2,800 -350 Descending Southern TRACON
Wed 01:23:01 AM 33.7833 -117.8000 180° South 153 176 2,400 -600 Descending Southern TRACON
Wed 01:24:01 AM 33.7500 -117.8167 203° Southwest 134 154 1,600 -645 Descending Southern TRACON
Wed 01:25:02 AM 33.7167 -117.8333 203° Southwest 123 142 1,100 -595 Descending Southern TRACON
Wed 01:26:02 AM 33.7000 -117.8667 239° Southwest 119 137 400 -700 Descending Southern TRACON

Login

Don't have an account? Register now (free) for customized features, flight alerts, and more!